NCAR-RAP Real-Time Weather Data

Output produced by METARs form (23 January 2018  15:45 UTC)
found at http://weather.rap.ucar.edu/surface/
 
RJCW 230300Z 10029G43KT 0200 R08/0200V0350N SHSN BLSN VV002 M04/M06 Q0999
RJCW 230200Z 10026KT 0200 R08/0175V0350N SHSN BLSN VV002 M04/M06 Q1001
RJCW 230100Z 10028G40KT 0200 R08/0200V0450N SHSN BLSN VV002 M05/M07 Q1004
RJCW 230020Z 09025G35KT 0300 R08/0275V0750N SHSN BLSN VV003 M05/M07 Q1005 RMK A2968 P/FR
RJCW 230013Z 09023G35KT 0400 R08/0325V0900D SHSN BLSN VV004 M05/M07 Q1005 RMK A2970 P/FR
RJCW 230007Z 10020KT 0600 R08/0500V1600D SHSN VV006 M05/M07 Q1005 RMK A2970 P/FR
RJCW 230004Z 09020KT 0600 R08/0500V1600U SHSN VV006 M05/M07 Q1006 RMK A2971
RJCW 230000Z 09021G36KT 0600 R08/0450V1500U SHSN VV006 M05/M07 Q1006
RJCW 222330Z 09020G31KT 0500 R08/0500V0750N SHSN VV005 M06/M07 Q1007 RMK A2974
RJCW 220920Z 26021KT 1600 R08/0650VP2000U BLSN -SHSN FEW006 SCT010 BKN030 M08/M10 Q1015 RMK 1ST006 3ST010 6CU030 A2997
RJCW 220908Z 26022KT 0400 R08/0600VP2000D BLSN SHSN FEW006 SCT010 BKN030 M08/M10 Q1015 RMK 1ST006 3ST010 6CU030 A2997
RJCW 220900Z 26020KT 0800 R08/1300VP2000D BLSN SHSN FEW015 SCT020 BKN030 M08/M11 Q1014
RJCW 220817Z 25025KT 1000 R08/0650VP2000U BLSN -SHSN FEW015 SCT020 BKN030 M08/M11 Q1014 RMK 1ST015 4CU020 6CU030 A2997
RJCW 220800Z 25023KT 0400 R08/0800VP2000D BLSN SHSN FEW010 SCT020 BKN030 M09/M11 Q1014
RJCW 220727Z 25024KT 1600 R08/0800VP2000U BLSN -SHSN FEW010 SCT020 BKN030 M08/M11 Q1014 RMK 1ST010 3CU020 6CU030 A2997
RJCW 220714Z 25022KT 0600 R08/0650VP2000D BLSN SHSN FEW010 SCT015 BKN030 M08/M11 Q1014 RMK 1ST010 3ST015 6CU030 A2997
RJCW 220700Z 25021KT 2000 R08/0800VP2000U BLSN -SHSN FEW010 SCT030 BKN050 M08/M12 Q1015
RJCW 220600Z 26024KT 0700 R08/0300VP2000D BLSN SHSN FEW003 SCT015 BKN030 M08/M12 Q1014
RJCW 220532Z 26024KT 0300 R08/0300V0750D BLSN SHSN VV003 M09/M11 Q1014 RMK A2995
RJCW 220500Z 26024KT 0500 R08/0450VP2000D BLSN SHSN FEW005 SCT030 BKN040 M08/M11 Q1014
RJCW 220429Z 25026KT 0300 R08/0225V0900N BLSN SHSN VV003 M09/M11 Q1014 RMK A2995
RJCW 220428Z 25026KT 0300 R08/0225V0900N BLSN SHSN VV003 M09/M12 Q1014 RMK A2995
RJCW 220420Z 25023KT 0500 R08/0250VP2000D BLSN SHSN VV005 M08/M11 Q1014 RMK A2995
RJCW 220418Z 25024KT 0500 R08/0325VP2000D BLSN SHSN VV005 M08/M11 Q1014 RMK A2995
RJCW 220417Z 25022G32KT 0500 R08/0300VP2000U BLSN SHSN VV005 M08/M11 Q1014 RMK A2995
RJCW 220408Z 25023G35KT 0500 R08/0225VP2000U BLSN SHSN VV005 M08/M11 Q1014 RMK A2995
RJCW 220402Z 25026KT 0400 R08/0225V1300N BLSN SHSN VV004 M09/M11 Q1014 RMK A2994
RJCW 220400Z 25027KT 0300 R08/0225V0900D BLSN SHSN VV004 M09/M11 Q1014
RJCW 220342Z 25024KT 0400 R08/0225V1600D BLSN SHSN FEW003 SCT020 BKN040 M09/M11 Q1014 RMK 1ST003 3CU020 6CU040 A2994
RJCW 220338Z 25024KT 0400 R08/0225V1600U BLSN SHSN FEW003 SCT020 BKN040 M09/M11 Q1014 RMK 1ST003 3CU020 6CU040 A2995
RJCW 220336Z 25025KT 0400 R08/0150V1600U BLSN SHSN FEW003 SCT020 BKN040 M09/M12 Q1014 RMK 1ST003 3CU020 6CU040 A2995
RJCW 220327Z 25022KT 0300 R08/0175VP2000D SHSN BLSN FEW003 SCT020 BKN040 M09/M11 Q1014 RMK 1ST003 3CU020 6CU040 A2995
RJCW 220326Z 25022KT 0500 R08/0200VP2000D SHSN BLSN FEW003 SCT020 BKN040 M08/M11 Q1014 RMK 1ST003 3CU020 6CU040 A2995
RJCW 220324Z 25022KT 0600 R08/0225VP2000D SHSN BLSN FEW003 SCT020 BKN040 M08/M11 Q1014 RMK 1ST003 3CU020 6CU040 A2995
RJCW 220323Z 25021KT 0800 R08/0250VP2000D SHSN BLSN FEW003 SCT020 BKN040 M08/M12 Q1014 RMK 1ST003 3CU020 6CU040 A2995
RJCW 220321Z 25022KT 0800 R08/0500VP2000U SHSN BLSN FEW003 SCT020 BKN040 M08/M12 Q1014 RMK 1ST003 3CU020 6CU040 A2995
RJCW 220319Z 25023KT 0800 R08/0325VP2000U SHSN BLSN FEW003 SCT010 BKN040 M08/M11 Q1014 RMK 1ST003 3ST010 6CU040 A2995
RJCW 220316Z 25025KT 0800 R08/0250VP2000U SHSN BLSN FEW003 SCT010 BKN040 M09/M11 Q1014 RMK 1ST003 3ST010 6CU040 A2995
RJCW 220311Z 25026KT 0400 R08/0250VP2000D SHSN BLSN VV003 M09/M12 Q1014 RMK A2995
RJCW 220309Z 25024KT 0300 R08/0250VP2000D SHSN BLSN VV003 M09/M12 Q1014 RMK A2995
RJCW 220308Z 25023KT 0300 R08/0375VP2000D SHSN BLSN VV003 M09/M12 Q1014 RMK A2995
RJCW 220305Z 25022KT 0800 R08/0375VP2000D SHSN BLSN FEW003 SCT006 BKN050 M09/M12 Q1014 RMK 1ST003 4ST006 6CU050 A2995
RJCW 220303Z 25021KT 0800 R08/0550VP2000U SHSN BLSN FEW003 SCT006 BKN050 M08/M12 Q1014 RMK 1ST003 4ST006 6CU050 A2995
RJCW 220300Z 25022KT 1000 R08/0200VP2000U -SHSN BLSN FEW003 SCT006 BKN050 M08/M11 Q1014
RJCW 220243Z 25023G35KT 0400 R08/0175V1800U SHSN BLSN VV004 M09/M11 Q1014 RMK A2996
RJCW 220222Z 24024KT 0100 R08/0175V0700D +SHSN BLSN VV002 M09/M11 Q1014 RMK A2996
RJCW 220218Z 24022G32KT 0100 R08/0175V1500D +SHSN VV003 M09/M11 Q1014 RMK A2997
RJCW 220217Z 24021KT 0100 R08/0200VP2000D +SHSN VV003 M09/M11 Q1014 RMK A2997
RJCW 220215Z 25019G30KT 0100 R08/0225VP2000D +SHSN VV003 M09/M11 Q1014 RMK A2997
RJCW 220214Z 25018G28KT 0300 R08/0375VP2000D SHSN FEW006 SCT010 BKN040 M09/M11 Q1014 RMK 2ST006 3ST010 6CU040 A2997
RJCW 220211Z 25017G28KT 1000 R08/0500VP2000D -SHSN FEW006 SCT010 BKN040 M09/M11 Q1014 RMK 2ST006 3ST010 6CU040 A2997
RJCW 220206Z 26016KT 3000 R08/0600VP2000U -SHSN FEW006 SCT010 BKN040 M08/M11 Q1015 RMK 2ST006 3ST010 6CU040 A2997
RJCW 220202Z 26017KT 2500 R08/0550VP2000U -SHSN FEW003 SCT006 BKN020 M09/M11 Q1014 RMK 1ST003 4ST006 6CU020 A2997
RJCW 220200Z 26017KT 1600 R08/0550VP2000U -SHSN FEW003 SCT006 BKN015 M09/M11 Q1014
RJCW 220137Z 26016KT 0400 R08/0200V0650U SHSN VV005 M09/M11 Q1015 RMK A2997
RJCW 220128Z 26016KT 0300 R08/0200V1100D SHSN VV004 M09/M11 Q1015 RMK A2998
RJCW 220123Z 26015KT 0500 R08/0400V1200N SHSN VV004 M09/M11 Q1015 RMK A2997
RJCW 220120Z 26015KT 0600 R08/0550V1200U SHSN VV006 M09/M11 Q1015 RMK A2998
RJCW 220110Z 27018KT 0500 R08/0400V1800D SHSN VV006 M09/M11 Q1015 RMK A2998
RJCW 220103Z 27019KT 0800 R08/0600V1800U SHSN VV006 M09/M11 Q1015 RMK A2998
RJCW 220100Z 27020KT 0500 R08/0500V1300N SHSN VV006 M09/M11 Q1015
RJCW 220037Z 28016KT 0400 R08/0700VP2000D SHSN VV005 M09/M11 Q1015 RMK A2997
RJCW 220031Z 28016KT 1000 R08/0800VP2000U -SHSN FEW003 SCT005 BKN020 M09/M12 Q1015 RMK 1ST003 4ST005 6CU020 A2998
RJCW 220030Z 28016KT 1000 R08/0550VP2000U -SHSN FEW003 SCT005 BKN020 M09/M12 Q1015 RMK 1ST003 4ST005 6CU020 A2998
RJCW 220027Z 28016KT 1000 R08/0450V2000U -SHSN FEW003 SCT005 BKN020 M09/M11 Q1015 RMK 1ST003 4ST005 6CU020 A2998
RJCW 220018Z 27016KT 0300 R08/0400V1800D SHSN VV005 M09/M11 Q1015 RMK A2998
RJCW 220016Z 27016KT 0300 R08/0450V1800D SHSN VV005 M09/M11 Q1015 RMK A2998
RJCW 220012Z 26016KT 0800 R08/0500V1800U SHSN FEW006 SCT010 BKN020 M09/M12 Q1015 RMK 1ST006 4ST010 6CU020 A2998
RJCW 220009Z 26017KT 0800 R08/0500V1800U SHSN FEW008 SCT010 BKN040 M10/M12 Q1015 RMK 1ST008 3ST010 6CU040 A2999
RJCW 220002Z 26016KT 0800 R08/0500VP2000D SHSN FEW008 SCT010 BKN040 M10/M12 Q1015 RMK 1ST008 3ST010 6CU040 A2999
RJCW 220000Z 26016KT 2000 R08/0600VP2000D -SHSN FEW010 SCT020 BKN040 M09/M13 Q1015
RJCW 212339Z 28020KT 4500 -SHSN FEW010 SCT020 BKN050 M09/M13 Q1015 RMK 1ST010 3CU020 6CU050 A2998
RJCW 210912Z 25020KT 2300 R08/0900VP2000D -SHSN BLSN FEW010 SCT020 BKN050 M12/M14 Q1010 RMK 1ST010 3CU020 5CU050 A2984
RJCW 210907Z 25020KT 3100 R08/0900VP2000D -SHSN BLSN FEW010 SCT020 BKN050 M11/M15 Q1010 RMK 1ST010 3CU020 5CU050 A2984
RJCW 210900Z 25019KT 4000 -SHSN BLSN FEW015 BKN050 M11/M16 Q1010
RJCW 210842Z 26020KT 2400 R08/1500VP2000N -SHSN BLSN FEW015 SCT025 BKN050 M11/M16 Q1010 RMK 1ST015 3CU025 5CU050 A2983
RJCW 210826Z 27023KT 2000 R08/1400VP2000N -SHSN BLSN FEW010 SCT015 BKN025 M11/M15 Q1010 RMK 1ST010 3ST015 5CU025 A2983
RJCW 210810Z 26019G29KT 1000 R08/0700VP2000D -SHSN BLSN FEW005 SCT015 BKN020 M12/M14 Q1009 RMK 1ST005 3ST015 5CU020 A2982
RJCW 210806Z 26020KT 0500 R08/0700VP2000D SHSN BLSN VV005 M11/M14 Q1009 RMK A2982
RJCW 210805Z 27020KT 0500 R08/1000VP2000N SHSN BLSN VV005 M11/M15 Q1009 RMK A2982
RJCW 210800Z 27022KT 1200 R08/1600VP2000N -SHSN BLSN FEW010 SCT015 BKN030 M12/M15 Q1009
RJCW 210737Z 27023KT 0300 R08/0350VP2000D SHSN BLSN VV003 M12/M14 Q1009 RMK A2982
RJCW 210736Z 27022KT 0300 R08/0350VP2000D SHSN BLSN VV003 M12/M14 Q1009 RMK A2982
RJCW 210735Z 27021KT 0800 R08/0650VP2000D SHSN BLSN VV008 M11/M14 Q1009 RMK A2982
RJCW 210727Z 26019KT 1600 R08/1000VP2000U -SHSN BLSN FEW006 SCT015 BKN030 M12/M15 Q1009 RMK 1ST006 3ST015 5CU030 A2982
RJCW 210724Z 26019KT 1200 R08/0900VP2000U -SHSN BLSN FEW006 SCT015 BKN030 M12/M15 Q1009 RMK 1ST006 3ST015 5CU030 A2982
RJCW 210723Z 26019KT 0600 R08/0600VP2000U SHSN BLSN VV006 M12/M14 Q1009 RMK A2981
RJCW 210717Z 26020KT 0400 R08/0450VP2000U SHSN BLSN VV004 M12/M14 Q1009 RMK A2981
RJCW 210712Z 26021KT 0300 R08/0500V1400D SHSN BLSN VV003 M12/M14 Q1009 RMK A2981
RJCW 210705Z 26023KT 0300 R08/0600VP2000D SHSN BLSN VV003 M12/M15 Q1009 RMK A2981
RJCW 210704Z 26023KT 0300 R08/0600VP2000D SHSN BLSN VV003 M12/M15 Q1009 RMK A2981
RJCW 210702Z 27024KT 0300 R08/0600VP2000D SHSN BLSN VV003 M12/M15 Q1009 RMK A2981
RJCW 210701Z 27024KT 0300 R08/0600VP2000D SHSN BLSN VV003 M12/M15 Q1009 RMK A2981
RJCW 210700Z 27024KT 0300 R08/0650VP2000D SHSN BLSN VV003 M12/M15 Q1009
RJCW 210642Z 28023KT 1000 R08/0650VP2000U -SHSN BLSN FEW010 SCT020 BKN040 M11/M15 Q1009 RMK 1ST010 3CU020 6CU040 A2980
RJCW 210638Z 27025KT 1000 R08/0650VP2000N -SHSN BLSN FEW010 SCT020 BKN040 M11/M15 Q1008 RMK 1ST010 3CU020 6CU040 A2979
RJCW 210634Z 27026KT 1000 R08/0650VP2000D -SHSN BLSN FEW010 SCT020 BKN040 M11/M15 Q1008 RMK 1ST010 3CU020 6CU040 A2979
RJCW 210600Z 27027KT 6000 R08/2000N -SHSN FEW020 SCT035 BKN050 M11/M17 Q1008
RJCW 210535Z 28027KT 5000 R08/0900VP2000U -SHSN BLSN FEW004 SCT030 BKN040 M11/M17 Q1008 RMK 1ST004 3CU030 5CU040 A2978
RJCW 210533Z 28027KT 3200 R08/0700VP2000U -SHSN BLSN FEW004 SCT030 BKN040 M11/M16 Q1008 RMK 1ST004 3CU030 5CU040 A2978
RJCW 210531Z 29026G36KT 1600 R08/0700VP2000U -SHSN BLSN FEW004 SCT030 BKN040 M11/M14 Q1008 RMK 1ST004 3CU030 5CU040 A2978
RJCW 210529Z 29026G36KT 1000 R08/0550VP2000U -SHSN BLSN FEW004 SCT030 BKN040 M10/M14 Q1008 RMK 1ST004 3CU030 5CU040 A2977
RJCW 210528Z 29027KT 1000 R08/0375V1700U -SHSN BLSN FEW004 SCT030 BKN040 M11/M13 Q1008 RMK 1ST004 3CU030 5CU040 A2977
RJCW 210524Z 28026KT 0400 R08/0375VP2000D SHSN BLSN VV004 M11/M13 Q1008 RMK A2977
RJCW 210521Z 28026KT 0300 R08/0375VP2000D SHSN BLSN VV003 M11/M14 Q1008 RMK A2977
RJCW 210520Z 28026KT 0300 R08/0375VP2000D SHSN BLSN VV003 M11/M14 Q1008 RMK A2977
RJCW 210500Z 28024KT 3200 R08/1100VP2000U -SHSN BLSN FEW020 SCT030 BKN040 M11/M16 Q1008
RJCW 210442Z 29026KT 2400 R08/0900VP2000U -SHSN BLSN FEW020 SCT030 BKN040 M11/M16 Q1008 RMK 1CU020 3CU030 6CU040 A2977
RJCW 210433Z 28026KT 1000 R08/1000VP2000N -SHSN BLSN FEW020 SCT030 BKN040 M11/M15 Q1007 RMK 1CU020 3CU030 6CU040 A2976
RJCW 210418Z 28025KT 2300 R08/1400VP2000D -SHSN BLSN FEW020 SCT030 BKN040 M11/M15 Q1007 RMK 1CU020 3CU030 6CU040 A2976
RJCW 210407Z 28027KT 3100 R08/0700VP2000D -SHSN BLSN FEW020 SCT030 BKN040 M11/M15 Q1007 RMK 1CU020 3CU030 6CU040 A2976
RJCW 210400Z 28026KT 3200 R08/1300VP2000N -SHSN BLSN FEW020 SCT030 BKN040 M11/M15 Q1007